Time;durP1;ratioP1;P1;durP2;ratioP2;P2;SDS_P1;SDS_P2;PMS_P1;PMS_P2;Temp;Humidity;BMP_temperature;BMP_pressure;BME280_temperature;BME280_humidity;BME280_pressure;Samples;Min_cycle;Max_cycle;Signal;HPM_P1;HPM_P2
2023/10/06 00:00:19;;;;;;;5.67;2.40;;;7.50;99.90;;;;;;480602;247;28005;-70
2023/10/06 00:02:08;;;;;;;3.10;2.47;;;7.50;99.90;;;;;;480545;247;27967;-71
2023/10/06 00:04:09;;;;;;;3.40;2.90;;;7.50;99.90;;;;;;480630;247;27564;-72
2023/10/06 00:06:21;;;;;;;4.63;2.97;;;7.50;99.90;;;;;;480644;247;27936;-71
2023/10/06 00:08:16;;;;;;;2.63;2.23;;;7.50;99.90;;;;;;480591;247;27976;-71
2023/10/06 00:10:26;;;;;;;4.00;2.87;;;7.50;99.90;;;;;;480560;247;27855;-71
2023/10/06 00:12:26;;;;;;;4.23;2.30;;;7.50;99.90;;;;;;480581;247;27725;-72
2023/10/06 00:14:40;;;;;;;3.53;2.43;;;7.50;99.90;;;;;;480595;247;27941;-71
2023/10/06 00:16:41;;;;;;;3.27;2.60;;;7.50;99.90;;;;;;480356;247;28052;-71
2023/10/06 00:18:43;;;;;;;3.37;2.63;;;7.40;99.90;;;;;;480609;247;28002;-71
2023/10/06 00:20:49;;;;;;;3.50;2.40;;;7.50;99.90;;;;;;480593;247;27937;-72
2023/10/06 00:22:48;;;;;;;2.53;2.30;;;7.50;99.90;;;;;;480577;247;27787;-71
2023/10/06 00:24:55;;;;;;;2.63;2.33;;;7.40;99.90;;;;;;480617;247;27896;-70
2023/10/06 00:26:55;;;;;;;2.60;2.40;;;7.30;99.90;;;;;;480606;247;27537;-71
2023/10/06 00:28:54;;;;;;;5.23;2.90;;;7.30;99.90;;;;;;480591;247;27779;-71
2023/10/06 00:30:56;;;;;;;2.77;2.37;;;7.30;99.90;;;;;;480608;247;27994;-71
2023/10/06 00:33:05;;;;;;;3.30;2.77;;;7.30;99.90;;;;;;480605;247;27923;-71
2023/10/06 00:35:22;;;;;;;5.80;3.10;;;7.30;99.90;;;;;;480583;247;27901;-70
2023/10/06 00:37:02;;;;;;;2.60;2.37;;;7.30;99.90;;;;;;480823;246;27941;-71
2023/10/06 00:39:12;;;;;;;2.37;2.17;;;7.40;99.90;;;;;;480605;247;27863;-72
2023/10/06 00:41:08;;;;;;;3.60;2.43;;;7.40;99.90;;;;;;480536;247;27605;-71
2023/10/06 00:43:08;;;;;;;2.87;2.60;;;7.40;99.90;;;;;;480608;246;28039;-72
2023/10/06 00:45:09;;;;;;;5.23;3.00;;;7.40;99.90;;;;;;480561;247;28536;-72
2023/10/06 00:47:11;;;;;;;2.93;2.27;;;7.30;99.90;;;;;;480598;247;28369;-71
2023/10/06 00:49:13;;;;;;;3.20;2.20;;;7.30;99.90;;;;;;480608;247;28524;-71
2023/10/06 00:51:22;;;;;;;3.13;2.30;;;7.30;99.90;;;;;;480577;247;28140;-71
2023/10/06 00:53:13;;;;;;;2.47;2.23;;;7.30;99.90;;;;;;480708;246;28366;-71
2023/10/06 00:55:14;;;;;;;2.83;2.50;;;7.30;99.90;;;;;;480544;247;28053;-72
2023/10/06 00:57:18;;;;;;;2.60;2.10;;;7.20;99.90;;;;;;480614;247;27881;-70
2023/10/06 00:59:16;;;;;;;2.23;2.00;;;7.20;99.90;;;;;;480582;247;27924;-71
2023/10/06 01:01:18;;;;;;;6.60;2.40;;;7.20;99.90;;;;;;480625;247;27978;-71
2023/10/06 01:03:19;;;;;;;2.83;2.17;;;7.20;99.90;;;;;;480636;247;28015;-71
2023/10/06 01:05:20;;;;;;;2.60;2.40;;;7.10;99.90;;;;;;480571;247;28032;-72
2023/10/06 01:07:24;;;;;;;2.63;2.43;;;7.10;99.90;;;;;;480629;247;27903;-71
2023/10/06 01:09:35;;;;;;;2.70;2.23;;;7.10;99.90;;;;;;480645;247;27639;-72
2023/10/06 01:11:33;;;;;;;2.50;2.30;;;7.10;99.90;;;;;;480644;246;28033;-71
2023/10/06 01:13:34;;;;;;;2.70;2.30;;;7.10;99.90;;;;;;480643;247;27814;-71
2023/10/06 01:15:36;;;;;;;4.27;2.27;;;7.00;99.90;;;;;;480618;247;27858;-71
2023/10/06 01:17:36;;;;;;;2.40;2.20;;;7.00;99.90;;;;;;480619;247;28060;-71
2023/10/06 01:19:47;;;;;;;2.70;2.50;;;7.00;99.90;;;;;;480619;247;27739;-71
2023/10/06 01:21:40;;;;;;;6.30;2.60;;;7.00;99.90;;;;;;480559;247;27749;-71
2023/10/06 01:23:40;;;;;;;2.53;2.33;;;7.00;99.90;;;;;;480628;247;28405;-73
2023/10/06 01:25:43;;;;;;;3.73;2.43;;;7.00;99.90;;;;;;480632;247;28404;-71
2023/10/06 01:27:44;;;;;;;2.80;2.50;;;7.00;99.90;;;;;;480555;247;28474;-72
2023/10/06 01:29:45;;;;;;;2.30;2.10;;;7.10;99.90;;;;;;480600;247;28123;-71
2023/10/06 01:31:46;;;;;;;2.80;2.40;;;7.00;99.90;;;;;;480618;247;27889;-71
2023/10/06 01:33:46;;;;;;;3.03;2.53;;;7.10;99.90;;;;;;480620;247;27466;-71
2023/10/06 01:35:49;;;;;;;2.80;2.60;;;7.10;99.90;;;;;;480524;247;27976;-71
2023/10/06 01:37:51;;;;;;;3.30;2.20;;;7.00;99.90;;;;;;480595;247;27565;-72
2023/10/06 01:39:51;;;;;;;5.13;2.20;;;7.00;99.90;;;;;;480599;247;27793;-71
2023/10/06 01:41:51;;;;;;;3.80;2.57;;;7.00;99.90;;;;;;480651;247;27945;-71
2023/10/06 01:43:53;;;;;;;2.40;2.20;;;7.00;99.90;;;;;;480668;247;27813;-71
2023/10/06 01:45:54;;;;;;;5.60;2.97;;;7.00;99.90;;;;;;480643;247;27838;-71
2023/10/06 01:50:14;;;;;;;3.10;2.80;;;7.00;99.90;;;;;;480644;247;28502;-71
2023/10/06 01:52:19;;;;;;;3.60;2.67;;;7.00;99.90;;;;;;480532;247;28215;-71
2023/10/06 01:54:17;;;;;;;5.23;2.77;;;7.00;99.90;;;;;;480609;247;28837;-71
2023/10/06 01:56:22;;;;;;;2.53;2.33;;;6.90;99.90;;;;;;480635;247;28559;-71
2023/10/06 01:58:19;;;;;;;4.67;2.50;;;6.90;99.90;;;;;;480589;247;27990;-71
2023/10/06 02:00:31;;;;;;;4.00;2.83;;;7.00;99.90;;;;;;480627;247;28146;-72
2023/10/06 02:02:28;;;;;;;2.60;2.40;;;7.00;99.90;;;;;;480626;247;28757;-71
2023/10/06 02:04:45;;;;;;;2.10;2.00;;;7.00;99.90;;;;;;480659;247;27421;-72
2023/10/06 02:06:44;;;;;;;4.23;2.10;;;7.00;99.90;;;;;;480651;246;28016;-72
2023/10/06 02:08:50;;;;;;;5.73;2.80;;;7.00;99.90;;;;;;480635;247;27648;-71
2023/10/06 02:10:47;;;;;;;2.50;2.30;;;7.00;99.90;;;;;;480569;247;28784;-71
2023/10/06 02:12:46;;;;;;;3.45;3.05;;;7.00;99.90;;;;;;480609;247;27877;-71
2023/10/06 02:14:48;;;;;;;3.17;2.60;;;7.00;99.90;;;;;;480613;247;27957;-70
2023/10/06 02:16:49;;;;;;;2.97;2.20;;;6.90;99.90;;;;;;480609;247;28519;-73
2023/10/06 02:18:50;;;;;;;3.43;2.60;;;6.90;99.90;;;;;;480627;247;28353;-71
2023/10/06 02:20:51;;;;;;;2.93;2.53;;;6.90;99.90;;;;;;480633;247;28547;-71
2023/10/06 02:22:53;;;;;;;3.20;2.47;;;6.90;99.90;;;;;;480638;247;27871;-71
2023/10/06 02:24:54;;;;;;;2.70;2.33;;;6.90;99.90;;;;;;480428;247;27961;-71
2023/10/06 02:27:00;;;;;;;2.90;2.57;;;7.00;99.90;;;;;;480646;247;28810;-73
2023/10/06 02:28:59;;;;;;;2.63;2.40;;;6.90;99.90;;;;;;480611;247;28082;-71
2023/10/06 02:31:04;;;;;;;2.50;2.30;;;6.90;99.90;;;;;;480568;247;28459;-71
2023/10/06 02:33:03;;;;;;;2.63;2.43;;;6.80;99.90;;;;;;480572;247;28836;-70
2023/10/06 02:35:03;;;;;;;5.35;2.75;;;6.80;99.90;;;;;;480597;247;27997;-73
2023/10/06 02:37:06;;;;;;;3.87;2.63;;;6.80;99.90;;;;;;480649;247;27402;-71
2023/10/06 02:39:06;;;;;;;3.10;2.50;;;6.80;99.90;;;;;;480624;247;28992;-71
2023/10/06 02:41:07;;;;;;;4.55;2.87;;;6.70;99.90;;;;;;480653;247;28108;-72
2023/10/06 02:43:09;;;;;;;5.80;2.87;;;6.70;99.90;;;;;;480642;247;27410;-71
2023/10/06 02:45:09;;;;;;;2.40;2.20;;;6.80;99.90;;;;;;480591;247;28792;-71
2023/10/06 02:47:11;;;;;;;3.30;2.73;;;6.80;99.90;;;;;;480607;247;27910;-71
2023/10/06 02:49:12;;;;;;;3.53;2.33;;;6.80;99.90;;;;;;480597;247;28811;-70
2023/10/06 02:51:14;;;;;;;5.80;2.60;;;6.80;99.90;;;;;;480644;245;28138;-73
2023/10/06 02:53:14;;;;;;;5.20;2.60;;;6.80;99.90;;;;;;480568;247;28634;-72
2023/10/06 02:55:31;;;;;;;2.23;2.03;;;6.80;99.90;;;;;;480621;247;28799;-72
2023/10/06 02:57:25;;;;;;;2.60;2.40;;;6.80;99.90;;;;;;480558;247;27457;-71
2023/10/06 02:59:25;;;;;;;2.17;2.03;;;6.80;99.90;;;;;;480572;247;27762;-71
2023/10/06 03:01:25;;;;;;;2.70;2.50;;;6.80;99.90;;;;;;480602;247;28867;-72
2023/10/06 03:03:27;;;;;;;4.10;2.67;;;6.70;99.90;;;;;;480650;247;28208;-71
2023/10/06 03:05:32;;;;;;;2.50;2.30;;;6.70;99.90;;;;;;480613;247;28379;-70
2023/10/06 03:07:32;;;;;;;2.40;2.20;;;6.70;99.90;;;;;;480626;247;28000;-71
2023/10/06 03:09:45;;;;;;;2.87;2.57;;;6.70;99.90;;;;;;480607;247;29386;-73
2023/10/06 03:11:41;;;;;;;2.83;2.40;;;6.60;99.90;;;;;;480577;247;28352;-71
2023/10/06 03:13:47;;;;;;;2.28;2.10;;;6.60;99.90;;;;;;480599;247;27666;-71
2023/10/06 03:15:46;;;;;;;2.53;2.33;;;6.70;99.90;;;;;;480569;247;27486;-71
2023/10/06 03:17:47;;;;;;;3.37;2.35;;;6.70;99.90;;;;;;480539;247;27510;-71
2023/10/06 03:20:11;;;;;;;2.90;2.30;;;6.70;99.90;;;;;;480556;247;27553;-71
2023/10/06 03:21:50;;;;;;;3.20;2.57;;;6.60;99.90;;;;;;480866;246;28480;-71
2023/10/06 03:23:58;;;;;;;3.17;2.80;;;6.60;99.90;;;;;;480592;247;29291;-71
2023/10/06 03:25:53;;;;;;;3.10;2.60;;;6.60;99.90;;;;;;480557;247;29342;-70
2023/10/06 03:27:54;;;;;;;3.40;2.77;;;6.60;99.90;;;;;;480563;247;28440;-71
2023/10/06 03:30:07;;;;;;;3.60;2.60;;;6.50;99.90;;;;;;480197;247;28791;-71
2023/10/06 03:31:59;;;;;;;4.17;2.40;;;6.50;99.90;;;;;;480518;246;27533;-71
2023/10/06 03:34:00;;;;;;;2.90;2.20;;;6.50;99.90;;;;;;480591;247;27816;-72
2023/10/06 03:36:01;;;;;;;2.58;2.30;;;6.50;99.90;;;;;;480610;247;28582;-71
2023/10/06 03:38:27;;;;;;;2.57;2.37;;;6.50;99.90;;;;;;480612;247;27933;-72
2023/10/06 03:40:22;;;;;;;3.00;2.63;;;6.50;99.90;;;;;;480564;247;28244;-71
2023/10/06 03:42:18;;;;;;;2.78;2.58;;;6.50;99.90;;;;;;480572;247;28039;-71
2023/10/06 03:44:18;;;;;;;2.62;2.42;;;6.50;99.90;;;;;;480569;247;27549;-71
2023/10/06 03:46:18;;;;;;;3.00;2.60;;;6.60;99.90;;;;;;480417;247;27437;-72
2023/10/06 03:48:19;;;;;;;2.85;2.55;;;6.60;99.90;;;;;;480598;247;28104;-72
2023/10/06 03:50:19;;;;;;;3.40;2.20;;;6.60;99.90;;;;;;480379;246;28351;-70
2023/10/06 03:52:20;;;;;;;3.30;3.00;;;6.50;99.90;;;;;;480475;245;29081;-70
2023/10/06 03:54:21;;;;;;;2.50;2.30;;;6.50;99.90;;;;;;480614;247;27418;-71
2023/10/06 03:56:22;;;;;;;2.80;2.60;;;6.50;99.90;;;;;;480592;247;28609;-72
2023/10/06 03:58:31;;;;;;;3.17;2.80;;;6.50;99.90;;;;;;480547;247;28760;-70
2023/10/06 04:00:28;;;;;;;3.00;2.30;;;6.50;99.90;;;;;;480622;246;28265;-71
2023/10/06 04:02:38;;;;;;;2.67;2.47;;;6.50;99.90;;;;;;480597;245;28476;-71
2023/10/06 04:04:30;;;;;;;3.25;2.95;;;6.50;99.90;;;;;;480577;247;28004;-72
2023/10/06 04:06:35;;;;;;;3.73;2.50;;;6.60;99.90;;;;;;480633;247;27497;-70
2023/10/06 04:08:36;;;;;;;7.40;2.70;;;6.60;99.90;;;;;;480620;247;29204;-71
2023/10/06 04:10:37;;;;;;;2.85;2.65;;;6.60;99.90;;;;;;480620;246;27490;-71
2023/10/06 04:12:38;;;;;;;5.68;3.35;;;6.60;99.90;;;;;;480610;247;27439;-71
2023/10/06 04:14:39;;;;;;;12.32;4.53;;;6.50;99.90;;;;;;480629;247;27525;-70
2023/10/06 04:16:46;;;;;;;3.53;2.50;;;6.40;99.90;;;;;;480619;247;27532;-71
2023/10/06 04:18:47;;;;;;;4.40;2.90;;;6.50;99.90;;;;;;480601;247;27551;-72
2023/10/06 04:20:46;;;;;;;5.47;3.30;;;6.50;99.90;;;;;;480662;247;27776;-71
2023/10/06 04:22:47;;;;;;;5.40;3.22;;;6.50;99.90;;;;;;480642;247;28805;-71
2023/10/06 04:24:48;;;;;;;5.90;3.40;;;6.50;99.90;;;;;;480635;247;27452;-73
2023/10/06 04:26:50;;;;;;;3.83;3.43;;;6.50;99.90;;;;;;480639;247;28221;-71
2023/10/06 04:28:51;;;;;;;4.55;3.60;;;6.50;99.90;;;;;;480624;247;28437;-72
2023/10/06 04:30:54;;;;;;;10.67;5.50;;;6.50;99.90;;;;;;480648;247;27565;-70
2023/10/06 04:32:53;;;;;;;7.90;5.30;;;6.40;99.90;;;;;;480595;247;28488;-71
2023/10/06 04:34:55;;;;;;;6.45;4.50;;;6.40;99.90;;;;;;480634;247;28044;-72
2023/10/06 04:36:56;;;;;;;7.18;5.07;;;6.40;99.90;;;;;;480641;247;27952;-71
2023/10/06 04:38:57;;;;;;;9.40;4.93;;;6.40;99.90;;;;;;480623;247;27445;-71
2023/10/06 04:40:59;;;;;;;8.50;4.65;;;6.40;99.90;;;;;;480628;247;28806;-70
2023/10/06 04:43:00;;;;;;;5.25;3.95;;;6.40;99.90;;;;;;480617;247;27516;-71
2023/10/06 04:45:06;;;;;;;7.85;5.05;;;6.40;99.90;;;;;;480599;247;27540;-71
2023/10/06 04:47:06;;;;;;;6.97;5.00;;;6.40;99.90;;;;;;480552;247;27410;-70
2023/10/06 04:49:04;;;;;;;5.07;4.05;;;6.40;99.90;;;;;;480596;247;27913;-71
2023/10/06 04:51:05;;;;;;;9.10;3.87;;;6.40;99.90;;;;;;480619;247;28096;-71
2023/10/06 04:53:06;;;;;;;4.82;3.97;;;6.40;99.90;;;;;;480611;247;28842;-70
2023/10/06 04:55:13;;;;;;;4.87;3.85;;;6.40;99.90;;;;;;480565;247;27633;-71
2023/10/06 04:57:09;;;;;;;4.20;3.80;;;6.30;99.90;;;;;;480592;246;27533;-71
2023/10/06 04:59:11;;;;;;;4.30;3.63;;;6.30;99.90;;;;;;480564;247;27437;-71
2023/10/06 05:01:12;;;;;;;3.53;2.90;;;6.40;99.90;;;;;;480586;247;28793;-72
2023/10/06 05:03:13;;;;;;;5.37;3.25;;;6.40;99.90;;;;;;480594;247;27850;-71
2023/10/06 05:05:14;;;;;;;6.00;3.67;;;6.40;99.90;;;;;;480627;247;27941;-71
2023/10/06 05:07:16;;;;;;;3.60;2.87;;;6.40;99.90;;;;;;480625;247;28097;-71
2023/10/06 05:09:18;;;;;;;3.72;3.17;;;6.40;99.90;;;;;;480627;247;29299;-70
2023/10/06 05:11:17;;;;;;;5.30;3.43;;;6.40;99.90;;;;;;480647;247;27508;-71
2023/10/06 05:13:19;;;;;;;4.10;3.00;;;6.40;99.90;;;;;;480508;247;28713;-70
2023/10/06 05:15:33;;;;;;;4.65;2.87;;;6.40;99.90;;;;;;480634;247;28378;-71
2023/10/06 05:17:31;;;;;;;18.92;5.25;;;6.40;99.90;;;;;;480596;246;27409;-70
2023/10/06 05:19:34;;;;;;;5.13;4.00;;;6.40;99.90;;;;;;480624;247;27453;-71
2023/10/06 05:21:36;;;;;;;3.27;2.60;;;6.40;99.90;;;;;;480598;247;28792;-71
2023/10/06 05:23:37;;;;;;;3.28;2.97;;;6.40;99.90;;;;;;480590;247;29284;-71
2023/10/06 05:25:38;;;;;;;4.40;2.90;;;6.30;99.90;;;;;;480610;247;27473;-71
2023/10/06 05:27:39;;;;;;;4.05;3.00;;;6.30;99.90;;;;;;480660;247;27445;-71
2023/10/06 05:29:40;;;;;;;3.40;2.95;;;6.30;99.90;;;;;;480637;247;27413;-71
2023/10/06 05:31:41;;;;;;;3.60;2.90;;;6.30;99.90;;;;;;480640;247;27453;-71
2023/10/06 05:33:44;;;;;;;4.00;3.37;;;6.30;99.90;;;;;;480635;247;27880;-72
2023/10/06 05:35:45;;;;;;;3.50;3.20;;;6.30;99.90;;;;;;480608;247;28142;-70
2023/10/06 05:37:46;;;;;;;5.60;3.60;;;6.30;99.90;;;;;;480649;247;29323;-73
2023/10/06 05:39:47;;;;;;;3.65;3.00;;;6.30;99.90;;;;;;480618;247;27406;-71
2023/10/06 05:41:48;;;;;;;3.20;2.90;;;6.30;99.90;;;;;;480653;247;27445;-72
2023/10/06 05:43:49;;;;;;;4.60;3.70;;;6.30;99.90;;;;;;480638;247;28625;-71
2023/10/06 05:45:56;;;;;;;3.70;2.80;;;6.30;99.90;;;;;;480632;247;27414;-71
2023/10/06 05:47:58;;;;;;;3.80;3.30;;;6.30;99.90;;;;;;480645;247;27402;-70
2023/10/06 05:49:58;;;;;;;4.22;3.37;;;6.30;99.90;;;;;;480650;247;27469;-71
2023/10/06 05:51:57;;;;;;;5.07;2.90;;;6.20;99.90;;;;;;480649;247;27426;-70
2023/10/06 05:53:58;;;;;;;2.93;2.67;;;6.10;99.90;;;;;;480622;247;27463;-71
2023/10/06 05:56:02;;;;;;;5.15;3.33;;;6.10;99.90;;;;;;480608;247;29383;-71
2023/10/06 05:58:01;;;;;;;5.90;3.58;;;6.30;99.90;;;;;;480637;247;27968;-71
2023/10/06 06:00:03;;;;;;;3.70;3.30;;;6.20;99.90;;;;;;480633;247;27532;-71
2023/10/06 06:02:04;;;;;;;5.60;3.60;;;6.30;99.90;;;;;;480630;246;27542;-71
2023/10/06 06:04:09;;;;;;;3.53;3.10;;;6.30;99.90;;;;;;480556;246;28777;-70
2023/10/06 06:06:08;;;;;;;5.60;3.43;;;6.40;99.90;;;;;;480604;247;27575;-71
2023/10/06 06:08:11;;;;;;;4.55;3.20;;;6.50;99.90;;;;;;480615;247;28761;-71
2023/10/06 06:10:13;;;;;;;4.22;3.17;;;6.50;99.90;;;;;;480650;246;27621;-70
2023/10/06 06:12:11;;;;;;;5.22;3.40;;;6.50;99.90;;;;;;480615;247;27928;-73
2023/10/06 06:14:11;;;;;;;3.37;3.05;;;6.40;99.90;;;;;;480642;247;28031;-71
2023/10/06 06:16:12;;;;;;;4.30;3.40;;;6.50;99.90;;;;;;480634;247;27489;-72
2023/10/06 06:18:14;;;;;;;4.00;3.17;;;6.60;99.90;;;;;;480642;247;27489;-70
2023/10/06 06:20:18;;;;;;;3.87;3.15;;;6.60;99.90;;;;;;480628;247;27437;-71
2023/10/06 06:22:16;;;;;;;4.28;3.17;;;6.60;99.90;;;;;;480615;245;27429;-71
2023/10/06 06:24:21;;;;;;;4.68;3.03;;;6.70;99.90;;;;;;480618;247;27962;-70
2023/10/06 06:26:19;;;;;;;4.20;2.83;;;6.70;99.90;;;;;;480600;247;27940;-70
2023/10/06 06:28:21;;;;;;;8.67;3.33;;;6.70;99.90;;;;;;480596;247;29516;-70
2023/10/06 06:30:21;;;;;;;4.75;3.20;;;6.70;99.90;;;;;;480602;247;28826;-70
2023/10/06 06:32:25;;;;;;;3.92;2.95;;;6.70;99.90;;;;;;480631;247;27659;-71
2023/10/06 06:34:24;;;;;;;3.23;2.93;;;6.70;99.90;;;;;;480589;247;27413;-71
2023/10/06 06:36:25;;;;;;;3.30;2.67;;;6.80;99.90;;;;;;480574;247;29046;-71
2023/10/06 06:38:26;;;;;;;4.13;3.30;;;6.80;99.90;;;;;;480552;247;29137;-71
2023/10/06 06:40:28;;;;;;;3.30;3.00;;;6.80;99.90;;;;;;480605;247;28749;-70
2023/10/06 06:42:29;;;;;;;3.80;3.20;;;6.90;99.90;;;;;;480604;247;28336;-71
2023/10/06 06:44:30;;;;;;;4.57;3.20;;;6.90;99.90;;;;;;480611;247;27992;-72
2023/10/06 06:46:31;;;;;;;3.27;2.97;;;6.90;99.90;;;;;;480510;247;28279;-71
2023/10/06 06:48:35;;;;;;;2.77;2.57;;;6.90;99.90;;;;;;480606;247;28773;-73
2023/10/06 06:50:34;;;;;;;3.70;3.20;;;7.00;99.90;;;;;;480605;247;28248;-70
2023/10/06 06:52:35;;;;;;;5.07;3.00;;;7.00;99.90;;;;;;480582;247;28328;-71
2023/10/06 06:54:38;;;;;;;3.20;2.80;;;7.00;99.90;;;;;;480633;247;28570;-71
2023/10/06 06:56:37;;;;;;;3.70;2.97;;;7.10;99.90;;;;;;480550;247;27795;-71
2023/10/06 06:58:39;;;;;;;5.50;3.40;;;7.20;99.90;;;;;;480625;247;27993;-72
2023/10/06 07:00:40;;;;;;;5.27;3.00;;;7.30;99.90;;;;;;480611;247;27449;-73
2023/10/06 07:02:41;;;;;;;4.50;3.03;;;7.30;99.90;;;;;;480614;247;27797;-70
2023/10/06 07:04:42;;;;;;;3.57;3.27;;;7.40;99.90;;;;;;480611;247;28334;-70
2023/10/06 07:06:44;;;;;;;4.80;3.30;;;7.50;99.90;;;;;;480596;247;27861;-71
2023/10/06 07:08:45;;;;;;;3.10;2.80;;;7.50;99.90;;;;;;480620;247;27812;-71
2023/10/06 07:10:52;;;;;;;5.00;3.60;;;7.60;99.90;;;;;;480626;247;27916;-71
2023/10/06 07:12:50;;;;;;;3.10;2.80;;;7.60;99.90;;;;;;480618;247;27750;-70
2023/10/06 07:14:51;;;;;;;3.57;3.03;;;7.70;99.90;;;;;;480632;247;27799;-71
2023/10/06 07:16:53;;;;;;;4.63;2.67;;;7.90;99.90;;;;;;480607;247;27685;-73
2023/10/06 07:18:54;;;;;;;3.73;3.20;;;7.90;99.90;;;;;;480603;247;28109;-71
2023/10/06 07:20:55;;;;;;;3.43;3.13;;;7.90;99.90;;;;;;480629;247;28472;-72
2023/10/06 07:22:56;;;;;;;3.93;3.53;;;8.00;99.90;;;;;;480601;244;28334;-71
2023/10/06 07:24:58;;;;;;;5.40;3.47;;;8.20;99.90;;;;;;480598;247;28095;-71
2023/10/06 07:26:59;;;;;;;4.57;3.50;;;8.20;99.90;;;;;;480639;247;28354;-73
2023/10/06 07:29:02;;;;;;;4.27;3.50;;;8.30;99.90;;;;;;480626;247;28530;-71
2023/10/06 07:31:04;;;;;;;3.40;3.17;;;8.30;99.90;;;;;;480578;247;27999;-72
2023/10/06 07:33:06;;;;;;;6.03;4.33;;;8.40;99.90;;;;;;480591;247;27425;-71
2023/10/06 07:35:07;;;;;;;7.07;4.20;;;8.50;99.90;;;;;;480617;247;27916;-72
2023/10/06 07:37:08;;;;;;;5.97;3.47;;;8.70;99.90;;;;;;480588;247;28481;-71
2023/10/06 07:39:20;;;;;;;3.40;3.10;;;8.80;99.90;;;;;;480589;247;28424;-72
2023/10/06 07:41:11;;;;;;;4.20;3.40;;;9.00;99.90;;;;;;480567;247;28358;-71
2023/10/06 07:43:12;;;;;;;3.93;3.30;;;9.10;99.90;;;;;;480612;247;28406;-71
2023/10/06 07:45:13;;;;;;;3.53;3.00;;;9.30;99.90;;;;;;480601;247;28384;-73
2023/10/06 07:47:16;;;;;;;3.57;3.23;;;9.30;99.90;;;;;;480635;247;27878;-71
2023/10/06 07:49:16;;;;;;;4.70;3.67;;;9.40;99.90;;;;;;480591;247;27895;-72
2023/10/06 07:51:17;;;;;;;4.13;3.70;;;9.50;99.90;;;;;;480599;247;27725;-71
2023/10/06 07:53:18;;;;;;;3.90;3.20;;;9.60;99.90;;;;;;480619;247;27422;-71
2023/10/06 07:55:22;;;;;;;4.13;3.37;;;9.60;99.90;;;;;;480607;247;27913;-73
2023/10/06 07:57:22;;;;;;;5.83;3.30;;;9.70;99.90;;;;;;480565;247;27898;-70
2023/10/06 07:59:22;;;;;;;4.67;3.17;;;9.70;99.90;;;;;;480558;247;27941;-72
2023/10/06 08:01:23;;;;;;;3.80;3.10;;;9.80;99.90;;;;;;480599;247;27939;-72
2023/10/06 08:03:25;;;;;;;4.40;3.13;;;9.90;99.90;;;;;;480582;247;27853;-71
2023/10/06 08:05:26;;;;;;;4.30;2.90;;;10.00;99.90;;;;;;480613;247;27979;-72
2023/10/06 08:07:27;;;;;;;5.97;3.30;;;10.10;99.90;;;;;;480615;247;27914;-72
2023/10/06 08:09:32;;;;;;;5.40;4.00;;;10.10;99.90;;;;;;480485;247;27930;-72
2023/10/06 08:11:29;;;;;;;6.80;4.10;;;10.30;99.90;;;;;;480593;247;28533;-73
2023/10/06 08:13:31;;;;;;;4.37;3.47;;;10.40;99.90;;;;;;480621;247;28427;-71
2023/10/06 08:15:32;;;;;;;7.10;3.67;;;10.40;99.90;;;;;;480619;245;28363;-71
2023/10/06 08:17:33;;;;;;;4.33;3.93;;;10.60;99.90;;;;;;480656;247;28350;-71
2023/10/06 08:19:34;;;;;;;5.33;3.60;;;10.60;99.90;;;;;;480625;247;27891;-71
2023/10/06 08:21:37;;;;;;;10.03;3.70;;;10.70;99.90;;;;;;480637;247;27928;-73
2023/10/06 08:23:37;;;;;;;8.27;4.10;;;10.70;99.90;;;;;;480650;247;27894;-71
2023/10/06 08:25:38;;;;;;;4.43;3.57;;;10.90;99.90;;;;;;480631;247;27907;-72
2023/10/06 08:27:39;;;;;;;4.43;3.90;;;10.90;99.90;;;;;;480629;247;27896;-71
2023/10/06 08:29:41;;;;;;;4.53;3.80;;;11.10;99.90;;;;;;480641;247;27996;-72
2023/10/06 08:31:42;;;;;;;6.77;3.57;;;11.20;99.90;;;;;;480635;247;27933;-72
2023/10/06 08:33:45;;;;;;;4.63;3.20;;;11.20;99.90;;;;;;480654;247;27953;-71
2023/10/06 08:35:44;;;;;;;5.90;3.23;;;11.40;99.90;;;;;;480595;247;28714;-72
2023/10/06 08:37:46;;;;;;;4.87;3.53;;;11.40;99.90;;;;;;480611;247;28600;-72
2023/10/06 08:39:47;;;;;;;6.70;3.60;;;11.50;99.90;;;;;;480620;247;28656;-72
2023/10/06 08:41:48;;;;;;;4.83;3.17;;;11.60;99.90;;;;;;480532;247;28677;-72
2023/10/06 08:43:49;;;;;;;7.60;3.50;;;11.70;99.90;;;;;;480646;247;28122;-71
2023/10/06 08:45:51;;;;;;;3.70;2.97;;;11.80;99.90;;;;;;480599;245;28255;-71
2023/10/06 08:47:53;;;;;;;4.13;2.80;;;;;;;;;;480649;247;28170;-72
2023/10/06 08:49:54;;;;;;;3.10;2.80;;;11.90;99.90;;;;;;480638;246;27579;-72
2023/10/06 08:51:56;;;;;;;4.93;2.90;;;11.90;99.90;;;;;;480664;247;28583;-72
2023/10/06 08:53:57;;;;;;;3.73;2.97;;;12.00;99.90;;;;;;480622;247;28610;-72
2023/10/06 08:55:58;;;;;;;3.27;2.80;;;12.00;99.90;;;;;;480674;247;28355;-73
2023/10/06 08:57:59;;;;;;;5.63;3.07;;;12.00;99.90;;;;;;480649;247;28282;-72
2023/10/06 09:00:07;;;;;;;14.23;3.70;;;;;;;;;;480636;247;28451;-71
2023/10/06 09:02:03;;;;;;;3.67;3.10;;;12.00;99.90;;;;;;480907;243;27690;-72
2023/10/06 09:04:04;;;;;;;4.63;3.53;;;12.10;99.90;;;;;;480631;247;28962;-73
2023/10/06 09:06:06;;;;;;;4.70;3.00;;;12.10;99.90;;;;;;480637;247;28346;-72
2023/10/06 09:08:09;;;;;;;3.43;2.77;;;12.10;99.90;;;;;;480637;247;28420;-72
2023/10/06 09:10:12;;;;;;;4.20;2.60;;;12.20;99.90;;;;;;480650;247;28161;-72
2023/10/06 09:12:12;;;;;;;6.20;2.80;;;12.30;99.90;;;;;;480634;247;27982;-72
2023/10/06 09:14:13;;;;;;;7.77;2.90;;;12.40;99.90;;;;;;480606;247;28248;-72
2023/10/06 09:16:16;;;;;;;2.83;2.47;;;12.40;99.90;;;;;;480606;247;28278;-73
2023/10/06 09:18:19;;;;;;;4.77;3.03;;;12.50;99.90;;;;;;480597;247;28549;-71
2023/10/06 09:20:20;;;;;;;6.53;2.80;;;12.50;99.90;;;;;;480628;245;27973;-72
2023/10/06 09:22:28;;;;;;;7.97;2.80;;;12.50;99.90;;;;;;480633;247;28399;-72
2023/10/06 09:24:23;;;;;;;3.20;2.63;;;12.50;99.90;;;;;;480562;247;28003;-73
2023/10/06 09:26:24;;;;;;;4.47;2.97;;;12.60;99.90;;;;;;480614;247;28465;-72
2023/10/06 09:28:26;;;;;;;6.20;3.00;;;12.50;99.90;;;;;;480599;246;28054;-72
2023/10/06 09:30:26;;;;;;;5.80;3.03;;;12.50;99.90;;;;;;480646;247;28427;-71
2023/10/06 09:32:27;;;;;;;4.80;2.77;;;12.50;99.90;;;;;;480613;247;28384;-72
2023/10/06 09:34:32;;;;;;;4.23;2.40;;;12.60;99.90;;;;;;480587;247;28253;-73
2023/10/06 09:36:33;;;;;;;5.13;2.83;;;12.60;99.90;;;;;;480578;247;28514;-72
2023/10/06 09:38:32;;;;;;;3.10;2.10;;;12.60;99.90;;;;;;480591;247;28855;-72
2023/10/06 09:40:32;;;;;;;4.37;2.50;;;12.60;99.90;;;;;;480595;247;28689;-72
2023/10/06 09:42:34;;;;;;;7.80;2.50;;;12.70;99.90;;;;;;480601;247;29315;-72
2023/10/06 09:44:35;;;;;;;2.83;2.50;;;12.80;99.90;;;;;;480647;247;28281;-73
2023/10/06 09:46:38;;;;;;;3.13;2.80;;;;;;;;;;480604;247;28754;-72
2023/10/06 09:48:39;;;;;;;6.53;3.07;;;12.90;99.90;;;;;;480662;242;26990;-72
2023/10/06 09:50:41;;;;;;;8.37;3.30;;;;;;;;;;480640;247;29597;-72
2023/10/06 09:52:43;;;;;;;6.83;2.97;;;13.00;99.90;;;;;;480662;247;26633;-72
2023/10/06 09:54:44;;;;;;;5.30;2.73;;;13.00;99.90;;;;;;480615;247;28874;-73
2023/10/06 09:56:45;;;;;;;5.23;3.00;;;13.10;99.90;;;;;;480626;247;28381;-73
2023/10/06 09:58:51;;;;;;;5.03;2.77;;;13.10;99.90;;;;;;480625;247;28550;-73
2023/10/06 10:00:49;;;;;;;4.37;2.20;;;13.20;99.90;;;;;;480662;246;29360;-73
2023/10/06 10:02:49;;;;;;;4.83;2.80;;;13.30;99.90;;;;;;480645;247;28603;-72
2023/10/06 10:04:50;;;;;;;2.87;2.40;;;13.40;99.90;;;;;;480638;247;28701;-73
2023/10/06 10:06:51;;;;;;;10.73;3.77;;;13.60;99.90;;;;;;480651;247;28513;-72
2023/10/06 10:08:52;;;;;;;7.67;2.93;;;13.70;99.90;;;;;;480629;247;28126;-72
2023/10/06 10:10:55;;;;;;;4.60;2.53;;;13.70;99.90;;;;;;480649;247;28308;-73
2023/10/06 10:12:55;;;;;;;3.30;2.30;;;13.60;99.90;;;;;;480606;247;28117;-73
2023/10/06 10:14:56;;;;;;;6.73;2.40;;;13.70;99.90;;;;;;480629;247;28215;-73
2023/10/06 10:16:57;;;;;;;5.17;2.80;;;13.80;99.90;;;;;;480646;247;28254;-73
2023/10/06 10:18:59;;;;;;;8.60;2.67;;;13.80;99.90;;;;;;480632;247;28222;-73
2023/10/06 10:21:00;;;;;;;3.60;2.43;;;13.80;99.90;;;;;;480617;247;28184;-72
2023/10/06 10:23:01;;;;;;;3.60;2.27;;;14.00;99.90;;;;;;480626;247;28161;-72
2023/10/06 10:25:05;;;;;;;4.47;2.70;;;14.10;99.90;;;;;;480639;247;28612;-72
2023/10/06 10:27:05;;;;;;;3.87;2.90;;;14.10;99.90;;;;;;480587;247;28721;-73
2023/10/06 10:29:05;;;;;;;3.90;2.50;;;14.10;99.90;;;;;;480633;247;28577;-73
2023/10/06 10:31:13;;;;;;;5.30;2.70;;;14.10;99.90;;;;;;480627;247;28727;-73
2023/10/06 10:33:07;;;;;;;5.03;2.73;;;14.20;99.90;;;;;;480568;247;28256;-74
2023/10/06 10:35:12;;;;;;;5.30;3.00;;;;;;;;;;480633;247;28205;-72
2023/10/06 10:37:12;;;;;;;4.43;2.43;;;14.20;99.90;;;;;;480740;242;26878;-72
2023/10/06 10:39:12;;;;;;;5.27;2.60;;;14.10;99.90;;;;;;480569;247;28796;-73
2023/10/06 10:41:15;;;;;;;11.03;2.30;;;14.00;99.90;;;;;;480608;247;28840;-73